Time;durP1;ratioP1;P1;durP2;ratioP2;P2;SDS_P1;SDS_P2;PMS_P1;PMS_P2;Temp;Humidity;BMP_temperature;BMP_pressure;BME280_temperature;BME280_humidity;BME280_pressure;Samples;Min_cycle;Max_cycle;Signal;HPM_P1;HPM_P2
2022/10/18 00:00:07;;;;;;;29.70;18.98;;;;;;;;;;4959883;28;20203;-49
2022/10/18 00:02:56;;;;;;;29.65;20.80;;;;;;;;;;4958859;28;20235;-47
2022/10/18 00:05:23;;;;;;;28.95;21.10;;;;;;;;;;4958302;28;20211;-47
2022/10/18 00:07:50;;;;;;;37.17;28.50;;;;;;;;;;4958676;28;20211;-49
2022/10/18 00:10:17;;;;;;;26.67;19.80;;;;;;;;;;4958654;29;20211;-48
2022/10/18 00:12:44;;;;;;;30.27;22.48;;;;;;;;;;4958866;28;20207;-48
2022/10/18 00:15:12;;;;;;;34.25;23.70;;;;;;;;;;4958512;28;20635;-49
2022/10/18 00:17:39;;;;;;;39.10;30.13;;;;;;;;;;4958813;28;20274;-48
2022/10/18 00:20:07;;;;;;;28.00;18.33;;;;;;;;;;4958814;28;20287;-47
2022/10/18 00:22:38;;;;;;;24.35;16.20;;;;;;;;;;4958443;28;20238;-49
2022/10/18 00:25:07;;;;;;;25.80;16.90;;;;;;;;;;4958383;28;20266;-50
2022/10/18 00:27:34;;;;;;;25.83;15.88;;;;;;;;;;4958575;28;20222;-48
2022/10/18 00:30:02;;;;;;;26.00;15.52;;;;;;;;;;4958173;28;20211;-48
2022/10/18 00:32:28;;;;;;;30.52;19.67;;;;;;;;;;4958310;28;20555;-48
2022/10/18 00:34:56;;;;;;;23.55;16.55;;;;;;;;;;4958348;28;20573;-48
2022/10/18 00:37:23;;;;;;;25.95;16.83;;;;;;;;;;4958424;28;20211;-49
2022/10/18 00:39:50;;;;;;;26.38;17.90;;;;;;;;;;4958102;28;20207;-47
2022/10/18 00:42:19;;;;;;;28.95;21.40;;;;;;;;;;4958181;28;20207;-48
2022/10/18 00:44:49;;;;;;;26.38;17.40;;;;;;;;;;4957400;29;20258;-46
2022/10/18 00:47:17;;;;;;;28.88;16.85;;;;;;;;;;4958153;28;20282;-47
2022/10/18 00:49:50;;;;;;;24.10;16.70;;;;;;;;;;4957917;28;20571;-48
2022/10/18 00:52:21;;;;;;;25.27;15.60;;;;;;;;;;4957813;29;20231;-49
2022/10/18 00:54:50;;;;;;;25.85;16.92;;;;;;;;;;4958033;28;20215;-49
2022/10/18 00:57:17;;;;;;;26.15;16.02;;;;;;;;;;4957965;28;20214;-47
2022/10/18 00:59:45;;;;;;;26.25;15.73;;;;;;;;;;4957759;28;20203;-48
2022/10/18 01:02:13;;;;;;;23.45;14.90;;;;;;;;;;4956796;29;20207;-49
2022/10/18 01:04:41;;;;;;;25.70;17.45;;;;;;;;;;4956877;29;20548;-47
2022/10/18 01:07:26;;;;;;;29.08;16.88;;;;;;;;;;4957473;28;20587;-47
2022/10/18 01:10:14;;;;;;;24.20;15.80;;;;;;;;;;4957732;28;20235;-47
2022/10/18 01:13:02;;;;;;;25.42;17.70;;;;;;;;;;4957595;28;20222;-48
2022/10/18 01:15:37;;;;;;;21.20;14.27;;;;;;;;;;4957376;28;20210;-48
2022/10/18 01:18:09;;;;;;;27.38;16.98;;;;;;;;;;4956734;29;20237;-48
2022/10/18 01:20:58;;;;;;;31.40;21.67;;;;;;;;;;4957640;28;20266;-50
2022/10/18 01:23:44;;;;;;;23.92;15.23;;;;;;;;;;4957344;29;20292;-47
2022/10/18 01:26:18;;;;;;;23.88;15.23;;;;;;;;;;4956555;29;20533;-47
2022/10/18 01:28:54;;;;;;;28.38;16.17;;;;;;;;;;4957432;28;20718;-47
2022/10/18 01:31:24;;;;;;;25.65;14.68;;;;;;;;;;4957184;28;20227;-48
2022/10/18 01:33:56;;;;;;;24.35;15.13;;;;;;;;;;4956479;29;20294;-47
2022/10/18 01:36:32;;;;;;;22.98;15.45;;;;;;;;;;4957013;28;20231;-49
2022/10/18 01:39:01;;;;;;;24.38;14.48;;;;;;;;;;4956741;29;20195;-48
2022/10/18 01:41:29;;;;;;;25.52;15.57;;;;;;;;;;4957034;28;20214;-48
2022/10/18 01:43:57;;;;;;;25.30;16.77;;;;;;;;;;4956957;28;20238;-48
2022/10/18 01:46:25;;;;;;;25.38;15.45;;;;;;;;;;4957274;28;20215;-48
2022/10/18 01:48:53;;;;;;;25.55;16.27;;;;;;;;;;4957587;28;20278;-48
2022/10/18 01:51:29;;;;;;;26.13;15.60;;;;;;;;;;4956851;28;20238;-47
2022/10/18 01:53:56;;;;;;;23.40;17.48;;;;;;;;;;4956858;28;20282;-48
2022/10/18 01:56:36;;;;;;;24.65;15.43;;;;;;;;;;4957111;28;20282;-50
2022/10/18 01:59:06;;;;;;;19.67;14.07;;;;;;;;;;4957253;28;20234;-51
2022/10/18 02:01:41;;;;;;;22.30;14.13;;;;;;;;;;4956670;28;20274;-48
2022/10/18 02:04:33;;;;;;;24.92;16.08;;;;;;;;;;4957280;28;20654;-48
2022/10/18 02:07:19;;;;;;;28.35;15.23;;;;;;;;;;4955977;29;20214;-48
2022/10/18 02:09:54;;;;;;;26.95;17.42;;;;;;;;;;4957052;29;20293;-47
2022/10/18 02:12:21;;;;;;;25.85;19.13;;;;;;;;;;4955828;29;20685;-50
2022/10/18 02:14:48;;;;;;;23.42;16.05;;;;;;;;;;4955951;29;20290;-50
2022/10/18 02:17:16;;;;;;;22.45;16.73;;;;;;;;;;4956794;28;20222;-49
2022/10/18 02:19:47;;;;;;;24.20;16.33;;;;;;;;;;4955831;29;20211;-47
2022/10/18 02:22:15;;;;;;;22.73;16.40;;;;;;;;;;4956590;28;20211;-47
2022/10/18 02:24:46;;;;;;;22.52;17.20;;;;;;;;;;4955958;29;20278;-49
2022/10/18 02:27:13;;;;;;;28.15;17.95;;;;;;;;;;4957147;28;20266;-48
2022/10/18 02:29:41;;;;;;;26.45;14.77;;;;;;;;;;4960354;28;20227;-49
2022/10/18 02:32:16;;;;;;;22.40;14.88;;;;;;;;;;4959617;29;20242;-48
2022/10/18 02:34:50;;;;;;;20.90;15.52;;;;;;;;;;4959962;29;20218;-48
2022/10/18 02:37:17;;;;;;;23.00;14.77;;;;;;;;;;4959618;29;20208;-48
2022/10/18 02:39:47;;;;;;;21.35;14.45;;;;;;;;;;4959677;29;20226;-49
2022/10/18 02:42:14;;;;;;;27.75;15.27;;;;;;;;;;4959575;29;20221;-47
2022/10/18 02:44:42;;;;;;;25.00;15.00;;;;;;;;;;4960368;29;20199;-50
2022/10/18 02:47:09;;;;;;;25.02;15.63;;;;;;;;;;4960348;28;20203;-47
2022/10/18 02:49:36;;;;;;;23.88;15.05;;;;;;;;;;4960316;28;20199;-48
2022/10/18 02:52:03;;;;;;;22.05;14.80;;;;;;;;;;4960428;28;20270;-52
2022/10/18 02:54:30;;;;;;;23.40;17.30;;;;;;;;;;4959978;28;20294;-49
2022/10/18 02:56:57;;;;;;;22.15;15.30;;;;;;;;;;4959922;28;20619;-48
2022/10/18 02:59:24;;;;;;;24.77;18.00;;;;;;;;;;4960834;28;20207;-48
2022/10/18 03:01:51;;;;;;;29.00;17.27;;;;;;;;;;4960093;28;20207;-47
2022/10/18 03:04:18;;;;;;;23.35;17.23;;;;;;;;;;4959580;28;20626;-47
2022/10/18 03:06:45;;;;;;;25.02;16.88;;;;;;;;;;4959738;28;20199;-49
2022/10/18 03:09:12;;;;;;;21.02;13.85;;;;;;;;;;4959895;28;20207;-49
2022/10/18 03:11:39;;;;;;;24.33;13.20;;;;;;;;;;4959714;28;20219;-48
2022/10/18 03:14:06;;;;;;;19.88;13.75;;;;;;;;;;4959606;28;20595;-47
2022/10/18 03:16:33;;;;;;;18.92;13.20;;;;;;;;;;4959640;28;20215;-49
2022/10/18 03:19:00;;;;;;;21.13;13.13;;;;;;;;;;4959856;28;20203;-49
2022/10/18 03:21:27;;;;;;;18.83;12.68;;;;;;;;;;4959530;28;20203;-47
2022/10/18 03:23:54;;;;;;;22.70;13.00;;;;;;;;;;4959425;28;20211;-47
2022/10/18 03:26:21;;;;;;;20.85;12.80;;;;;;;;;;4960051;28;20222;-47
2022/10/18 03:28:48;;;;;;;19.45;13.65;;;;;;;;;;4959311;28;20658;-48
2022/10/18 03:31:15;;;;;;;21.30;13.45;;;;;;;;;;4959449;28;20207;-48
2022/10/18 03:33:42;;;;;;;20.10;12.68;;;;;;;;;;4959804;28;20207;-48
2022/10/18 03:36:10;;;;;;;21.42;14.82;;;;;;;;;;4959439;28;20278;-48
2022/10/18 03:38:37;;;;;;;20.85;12.82;;;;;;;;;;4958060;28;20203;-48
2022/10/18 03:41:05;;;;;;;23.08;13.43;;;;;;;;;;4959381;28;20211;-50
2022/10/18 03:43:31;;;;;;;19.80;13.18;;;;;;;;;;4959276;28;20207;-48
2022/10/18 03:45:59;;;;;;;19.40;12.70;;;;;;;;;;4959224;28;20203;-50
2022/10/18 03:48:27;;;;;;;24.52;13.55;;;;;;;;;;4958933;28;20283;-49
2022/10/18 03:50:54;;;;;;;21.30;13.20;;;;;;;;;;4959160;28;20242;-50
2022/10/18 03:53:21;;;;;;;17.98;12.32;;;;;;;;;;4965439;28;20312;-49
2022/10/18 03:55:51;;;;;;;19.77;12.18;;;;;;;;;;4958801;28;20211;-48
2022/10/18 03:58:19;;;;;;;19.00;13.20;;;;;;;;;;4965140;28;20219;-49
2022/10/18 04:00:50;;;;;;;19.73;12.25;;;;;;;;;;4957562;28;20571;-48
2022/10/18 04:03:18;;;;;;;18.85;13.05;;;;;;;;;;4957128;29;20243;-49
2022/10/18 04:05:45;;;;;;;22.55;14.57;;;;;;;;;;4957591;28;20239;-48
2022/10/18 04:08:13;;;;;;;23.83;15.80;;;;;;;;;;4957897;28;20257;-47
2022/10/18 04:10:41;;;;;;;22.83;18.17;;;;;;;;;;4957998;28;20545;-48
2022/10/18 04:13:08;;;;;;;26.15;17.73;;;;;;;;;;4957838;28;20678;-48
2022/10/18 04:15:35;;;;;;;20.02;13.80;;;;;;;;;;4957104;28;20258;-49
2022/10/18 04:18:02;;;;;;;23.88;14.63;;;;;;;;;;4958182;29;20231;-47
2022/10/18 04:20:29;;;;;;;22.83;13.32;;;;;;;;;;4957749;28;20544;-48
2022/10/18 04:22:56;;;;;;;17.98;13.02;;;;;;;;;;4958130;28;20223;-47
2022/10/18 04:25:24;;;;;;;20.20;12.93;;;;;;;;;;4957373;28;20247;-50
2022/10/18 04:27:51;;;;;;;17.92;12.45;;;;;;;;;;4957910;28;20227;-47
2022/10/18 04:30:18;;;;;;;15.95;11.48;;;;;;;;;;4957386;28;20227;-48
2022/10/18 04:32:44;;;;;;;21.20;12.63;;;;;;;;;;4956879;28;20233;-48
2022/10/18 04:35:12;;;;;;;18.15;11.60;;;;;;;;;;4957498;28;20219;-47
2022/10/18 04:37:39;;;;;;;22.30;12.40;;;;;;;;;;4957441;28;20318;-49
2022/10/18 04:40:06;;;;;;;18.33;12.07;;;;;;;;;;4960519;28;20584;-47
2022/10/18 04:42:33;;;;;;;20.40;13.43;;;;;;;;;;4959671;28;20223;-48
2022/10/18 04:45:00;;;;;;;18.23;12.30;;;;;;;;;;4959460;28;20219;-48
2022/10/18 04:47:27;;;;;;;18.48;12.80;;;;;;;;;;4960473;28;20250;-48
2022/10/18 04:49:55;;;;;;;23.58;13.68;;;;;;;;;;4960079;28;20277;-49
2022/10/18 04:52:22;;;;;;;19.70;12.52;;;;;;;;;;4962088;28;20231;-52
2022/10/18 04:54:49;;;;;;;19.83;12.82;;;;;;;;;;4961235;28;20286;-50
2022/10/18 04:57:16;;;;;;;20.73;12.90;;;;;;;;;;4963641;28;20211;-48
2022/10/18 04:59:43;;;;;;;26.33;17.45;;;;;;;;;;4958234;28;20228;-48
2022/10/18 05:02:10;;;;;;;17.20;13.13;;;;;;;;;;4960752;28;20215;-48
2022/10/18 05:04:37;;;;;;;20.65;12.40;;;;;;;;;;4964884;28;20211;-48
2022/10/18 05:07:05;;;;;;;18.45;12.23;;;;;;;;;;4967194;28;20580;-48
2022/10/18 05:09:32;;;;;;;18.38;11.90;;;;;;;;;;4970024;28;20215;-49
2022/10/18 05:11:59;;;;;;;17.95;12.65;;;;;;;;;;4964450;28;20313;-48
2022/10/18 05:14:26;;;;;;;17.00;12.23;;;;;;;;;;4966594;28;20227;-47
2022/10/18 05:16:53;;;;;;;16.25;11.48;;;;;;;;;;4976149;28;20241;-48
2022/10/18 05:19:20;;;;;;;15.45;11.27;;;;;;;;;;4976730;28;20206;-47
2022/10/18 05:21:47;;;;;;;18.00;11.98;;;;;;;;;;4976888;28;20202;-47
2022/10/18 05:24:14;;;;;;;19.80;12.15;;;;;;;;;;4976635;28;20210;-48
2022/10/18 05:26:41;;;;;;;19.02;11.68;;;;;;;;;;4976433;28;20217;-48
2022/10/18 05:29:08;;;;;;;17.42;12.55;;;;;;;;;;4976590;28;20218;-47
2022/10/18 05:31:35;;;;;;;20.65;12.38;;;;;;;;;;4976462;28;20214;-49
2022/10/18 05:34:03;;;;;;;19.65;11.82;;;;;;;;;;4976281;28;20227;-47
2022/10/18 05:36:30;;;;;;;18.70;11.15;;;;;;;;;;4976672;28;20592;-47
2022/10/18 05:38:57;;;;;;;18.52;12.63;;;;;;;;;;4976591;28;20202;-47
2022/10/18 05:41:30;;;;;;;20.30;11.57;;;;;;;;;;4976718;28;20234;-48
2022/10/18 05:43:57;;;;;;;15.50;11.25;;;;;;;;;;4976280;28;20258;-48
2022/10/18 05:46:24;;;;;;;15.32;10.68;;;;;;;;;;4976767;28;20206;-48
2022/10/18 05:48:51;;;;;;;22.00;12.55;;;;;;;;;;4976313;28;20221;-47
2022/10/18 05:51:18;;;;;;;15.05;10.63;;;;;;;;;;4976763;28;20194;-47
2022/10/18 05:53:45;;;;;;;20.20;12.23;;;;;;;;;;4976232;28;20245;-48
2022/10/18 05:56:13;;;;;;;14.55;11.05;;;;;;;;;;4976636;28;20281;-49
2022/10/18 05:58:41;;;;;;;15.18;10.73;;;;;;;;;;4976499;28;20210;-48
2022/10/18 06:01:09;;;;;;;16.88;10.98;;;;;;;;;;4975770;28;20285;-48
2022/10/18 06:03:36;;;;;;;16.85;10.73;;;;;;;;;;4976438;28;20238;-49
2022/10/18 06:06:09;;;;;;;17.52;11.13;;;;;;;;;;4976268;28;20241;-48
2022/10/18 06:08:37;;;;;;;16.70;10.75;;;;;;;;;;4976806;28;20214;-47
2022/10/18 06:11:12;;;;;;;16.88;10.82;;;;;;;;;;4976143;28;20216;-48
2022/10/18 06:13:44;;;;;;;17.60;10.93;;;;;;;;;;4974997;28;20218;-48
2022/10/18 06:16:13;;;;;;;17.17;10.85;;;;;;;;;;4976168;28;20207;-49
2022/10/18 06:18:40;;;;;;;16.00;11.30;;;;;;;;;;4975836;28;20210;-48
2022/10/18 06:21:07;;;;;;;16.40;11.27;;;;;;;;;;4976783;28;20210;-49
2022/10/18 06:23:35;;;;;;;19.85;11.38;;;;;;;;;;4958742;28;20214;-48
2022/10/18 06:26:04;;;;;;;19.95;12.35;;;;;;;;;;4976609;28;20210;-47
2022/10/18 06:28:34;;;;;;;18.33;11.70;;;;;;;;;;4976268;28;20206;-49
2022/10/18 06:31:01;;;;;;;17.50;11.55;;;;;;;;;;4975956;28;20269;-47
2022/10/18 06:33:30;;;;;;;15.40;10.52;;;;;;;;;;4976322;28;20230;-48
2022/10/18 06:35:59;;;;;;;17.88;11.25;;;;;;;;;;4975930;28;20217;-49
2022/10/18 06:38:27;;;;;;;18.40;11.90;;;;;;;;;;4976326;28;20214;-47
2022/10/18 06:40:54;;;;;;;16.20;11.50;;;;;;;;;;4975792;28;20217;-48
2022/10/18 06:43:22;;;;;;;18.40;11.95;;;;;;;;;;4975760;28;20211;-48
2022/10/18 06:45:49;;;;;;;16.65;12.05;;;;;;;;;;4975719;28;20213;-48
2022/10/18 06:48:17;;;;;;;17.67;11.25;;;;;;;;;;4975500;28;20633;-48
2022/10/18 06:51:02;;;;;;;16.70;11.30;;;;;;;;;;4976251;28;20226;-48
2022/10/18 06:53:32;;;;;;;15.73;11.35;;;;;;;;;;4976063;28;20242;-48
2022/10/18 06:56:00;;;;;;;16.90;11.50;;;;;;;;;;4975675;28;20580;-48
2022/10/18 06:58:28;;;;;;;19.40;11.27;;;;;;;;;;4975675;28;20206;-47
2022/10/18 07:00:56;;;;;;;17.77;11.35;;;;;;;;;;4976014;28;20199;-47
2022/10/18 07:03:23;;;;;;;16.65;10.43;;;;;;;;;;4975387;28;20254;-48
2022/10/18 07:05:49;;;;;;;19.63;11.35;;;;;;;;;;4975697;28;20525;-48
2022/10/18 07:08:17;;;;;;;15.98;10.57;;;;;;;;;;4975570;28;20269;-48
2022/10/18 07:10:52;;;;;;;16.40;10.65;;;;;;;;;;4975590;28;20581;-47
2022/10/18 07:13:20;;;;;;;19.10;10.68;;;;;;;;;;4976499;28;20373;-49
2022/10/18 07:16:00;;;;;;;15.77;10.05;;;;;;;;;;4979237;28;20222;-49
2022/10/18 07:18:27;;;;;;;15.82;10.27;;;;;;;;;;4979458;28;20202;-48
2022/10/18 07:20:54;;;;;;;14.48;10.05;;;;;;;;;;4978889;28;20285;-48
2022/10/18 07:23:22;;;;;;;16.10;10.77;;;;;;;;;;4979094;28;20198;-48
2022/10/18 07:25:50;;;;;;;18.15;10.85;;;;;;;;;;4979008;28;20642;-48
2022/10/18 07:28:17;;;;;;;15.60;10.40;;;;;;;;;;4978717;28;20253;-47
2022/10/18 07:30:44;;;;;;;16.73;9.75;;;;;;;;;;4978860;28;20642;-49
2022/10/18 07:33:11;;;;;;;17.42;10.38;;;;;;;;;;4978642;28;20617;-48
2022/10/18 07:35:38;;;;;;;17.75;9.57;;;;;;;;;;4978698;28;20213;-48
2022/10/18 07:38:05;;;;;;;14.77;10.30;;;;;;;;;;4978761;28;20257;-48
2022/10/18 07:40:32;;;;;;;16.58;9.40;;;;;;;;;;4978653;28;20213;-48
2022/10/18 07:42:59;;;;;;;14.52;9.65;;;;;;;;;;4979076;28;20203;-49
2022/10/18 07:45:31;;;;;;;16.52;9.60;;;;;;;;;;4978865;28;20342;-48
2022/10/18 07:47:58;;;;;;;16.42;8.88;;;;;;;;;;4978636;28;20202;-47
2022/10/18 07:50:25;;;;;;;13.68;9.30;;;;;;;;;;4978448;28;20298;-47
2022/10/18 07:52:52;;;;;;;14.25;8.85;;;;;;;;;;4978477;28;20230;-49
2022/10/18 07:55:19;;;;;;;11.45;8.48;;;;;;;;;;4978627;28;20241;-49
2022/10/18 07:57:46;;;;;;;16.33;9.48;;;;;;;;;;4978261;28;20211;-48
2022/10/18 08:00:13;;;;;;;13.98;9.02;;;;;;;;;;4978658;28;20306;-47
2022/10/18 08:02:41;;;;;;;10.82;8.15;;;;;;;;;;4978139;28;20234;-47
2022/10/18 08:05:08;;;;;;;12.38;8.27;;;;;;;;;;4978330;28;20215;-48
2022/10/18 08:07:35;;;;;;;13.35;8.80;;;;;;;;;;4978293;28;20217;-50
2022/10/18 08:10:02;;;;;;;12.55;7.82;;;;;;;;;;4978292;28;20293;-49
2022/10/18 08:12:30;;;;;;;12.43;8.10;;;;;;;;;;4977588;28;20214;-47
2022/10/18 08:14:56;;;;;;;15.02;8.48;;;;;;;;;;4978004;28;20206;-48
2022/10/18 08:17:23;;;;;;;14.50;8.07;;;;;;;;;;4977870;28;20223;-47
2022/10/18 08:51:47;;;;;;;14.43;8.88;;;;;;;;;;4977208;28;20644;-48
2022/10/18 08:54:24;;;;;;;11.57;7.50;;;;;;;;;;4976856;28;20234;-48
2022/10/18 08:56:58;;;;;;;12.05;7.78;;;;;;;;;;4977543;28;20293;-48
2022/10/18 08:59:29;;;;;;;14.88;8.30;;;;;;;;;;4977622;28;20199;-49
2022/10/18 09:02:21;;;;;;;12.10;8.13;;;;;;;;;;4977342;28;20226;-48
2022/10/18 09:05:16;;;;;;;16.73;8.13;;;;;;;;;;4976644;28;20198;-50
2022/10/18 09:08:00;;;;;;;14.35;8.25;;;;;;;;;;4976348;28;20289;-48
2022/10/18 09:11:15;;;;;;;13.23;7.95;;;;;;;;;;4977301;28;20198;-49
2022/10/18 09:14:06;;;;;;;14.25;7.28;;;;;;;;;;4960880;28;20245;-48
2022/10/18 09:16:45;;;;;;;11.93;7.80;;;;;;;;;;4977420;28;20226;-48
2022/10/18 09:19:36;;;;;;;12.57;7.90;;;;;;;;;;4977076;28;20273;-47
2022/10/18 09:22:12;;;;;;;14.90;7.80;;;;;;;;;;4975893;28;20203;-48
2022/10/18 09:24:45;;;;;;;12.98;7.80;;;;;;;;;;4976695;28;20289;-48
2022/10/18 09:27:17;;;;;;;13.43;8.20;;;;;;;;;;4976026;28;20226;-48
2022/10/18 09:29:56;;;;;;;13.50;9.55;;;;;;;;;;4976990;28;20290;-48
2022/10/18 09:32:29;;;;;;;14.25;9.32;;;;;;;;;;4976478;28;20203;-48
2022/10/18 09:35:16;;;;;;;15.65;9.13;;;;;;;;;;4976416;28;20300;-48
2022/10/18 09:37:44;;;;;;;12.38;7.65;;;;;;;;;;4976017;28;20210;-47
2022/10/18 09:40:23;;;;;;;12.43;8.73;;;;;;;;;;4976589;28;20217;-48
2022/10/18 09:43:11;;;;;;;12.70;8.05;;;;;;;;;;4975752;28;20238;-48
2022/10/18 09:45:43;;;;;;;13.70;8.63;;;;;;;;;;4975400;28;20186;-52
2022/10/18 09:48:27;;;;;;;18.48;10.10;;;;;;;;;;4976776;28;20202;-48
2022/10/18 09:51:02;;;;;;;14.88;9.23;;;;;;;;;;4975694;28;20282;-49
2022/10/18 09:53:41;;;;;;;15.75;10.07;;;;;;;;;;4975277;28;20669;-49
2022/10/18 09:56:14;;;;;;;22.33;11.13;;;;;;;;;;4976241;28;20198;-50
2022/10/18 09:58:47;;;;;;;19.45;10.02;;;;;;;;;;4976227;28;20217;-48
2022/10/18 10:01:23;;;;;;;14.40;10.10;;;;;;;;;;4976187;28;20642;-47
2022/10/18 10:03:51;;;;;;;19.83;9.85;;;;;;;;;;4976361;28;20238;-48
2022/10/18 10:06:33;;;;;;;16.40;9.15;;;;;;;;;;4975341;28;20653;-49
2022/10/18 10:09:14;;;;;;;16.13;10.07;;;;;;;;;;4976597;28;20201;-48
2022/10/18 10:11:47;;;;;;;15.38;10.15;;;;;;;;;;4975953;28;20206;-48
2022/10/18 10:14:15;;;;;;;15.82;10.43;;;;;;;;;;4976009;28;20708;-48
2022/10/18 10:16:49;;;;;;;16.95;9.90;;;;;;;;;;4976510;28;20202;-48
2022/10/18 10:19:18;;;;;;;17.55;9.75;;;;;;;;;;4976049;28;20211;-48
2022/10/18 10:21:46;;;;;;;13.85;10.00;;;;;;;;;;4975777;28;20199;-47
2022/10/18 10:24:39;;;;;;;19.02;9.63;;;;;;;;;;4975224;28;20226;-47
2022/10/18 10:27:17;;;;;;;13.95;9.30;;;;;;;;;;4975686;28;20206;-49
2022/10/18 10:29:44;;;;;;;20.10;9.90;;;;;;;;;;4975138;28;20524;-48
2022/10/18 10:32:13;;;;;;;14.32;9.38;;;;;;;;;;4975939;28;20207;-49
2022/10/18 10:34:40;;;;;;;15.95;10.05;;;;;;;;;;4942810;28;20238;-48
2022/10/18 10:37:29;;;;;;;13.30;9.63;;;;;;;;;;4975821;28;20285;-48
2022/10/18 10:40:09;;;;;;;15.40;10.00;;;;;;;;;;4976159;28;20187;-48
2022/10/18 10:43:03;;;;;;;17.15;9.95;;;;;;;;;;4976224;28;20214;-48
2022/10/18 10:46:10;;;;;;;14.40;10.18;;;;;;;;;;4975628;28;20215;-49
2022/10/18 10:48:45;;;;;;;18.25;10.35;;;;;;;;;;4977796;28;20624;-49
2022/10/18 10:51:13;;;;;;;15.40;10.18;;;;;;;;;;4977464;28;20198;-49
2022/10/18 10:54:00;;;;;;;14.27;9.57;;;;;;;;;;4965281;28;20575;-48
2022/10/18 10:56:30;;;;;;;14.80;9.38;;;;;;;;;;4971395;28;20211;-47
2022/10/18 10:59:05;;;;;;;14.82;9.02;;;;;;;;;;4966971;28;20204;-48
2022/10/18 11:01:33;;;;;;;14.63;9.65;;;;;;;;;;4968258;28;20205;-48
2022/10/18 11:04:03;;;;;;;21.33;9.43;;;;;;;;;;4967218;28;20674;-49
2022/10/18 11:06:32;;;;;;;16.27;9.25;;;;;;;;;;4969195;28;20210;-49
2022/10/18 11:09:02;;;;;;;15.82;9.65;;;;;;;;;;4967950;28;20208;-49
2022/10/18 11:11:32;;;;;;;16.02;9.90;;;;;;;;;;4967085;28;20210;-49
2022/10/18 11:14:12;;;;;;;12.45;8.88;;;;;;;;;;4964341;28;20216;-51
2022/10/18 11:17:13;;;;;;;18.23;10.10;;;;;;;;;;4962527;28;20615;-48
2022/10/18 11:19:57;;;;;;;19.55;10.55;;;;;;;;;;4966058;28;20651;-48
2022/10/18 11:22:26;;;;;;;13.90;9.77;;;;;;;;;;4966371;28;20222;-48
2022/10/18 11:24:54;;;;;;;15.18;10.05;;;;;;;;;;4963746;28;20208;-48
2022/10/18 11:27:28;;;;;;;16.80;10.50;;;;;;;;;;4967839;28;20199;-48
2022/10/18 11:30:36;;;;;;;15.20;9.93;;;;;;;;;;4963772;28;20291;-48
2022/10/18 11:33:46;;;;;;;15.20;10.20;;;;;;;;;;4966027;28;20199;-49
2022/10/18 11:36:52;;;;;;;13.70;9.85;;;;;;;;;;4955533;28;20660;-49
2022/10/18 11:40:00;;;;;;;17.70;10.80;;;;;;;;;;4969798;28;20574;-53
2022/10/18 11:43:04;;;;;;;21.13;9.48;;;;;;;;;;4967713;28;20619;-51
2022/10/18 11:45:50;;;;;;;17.25;10.25;;;;;;;;;;4968224;28;20202;-49
2022/10/18 11:48:36;;;;;;;15.95;10.85;;;;;;;;;;4964583;28;20215;-49
2022/10/18 11:51:19;;;;;;;19.20;10.55;;;;;;;;;;4966899;28;20250;-50
2022/10/18 11:54:16;;;;;;;21.52;10.88;;;;;;;;;;4967870;28;20301;-49
2022/10/18 11:56:46;;;;;;;13.45;9.73;;;;;;;;;;4966607;28;20200;-50
2022/10/18 11:59:34;;;;;;;13.48;10.02;;;;;;;;;;4962110;28;20287;-49
2022/10/18 12:02:29;;;;;;;14.95;10.88;;;;;;;;;;4963636;28;20258;-50
2022/10/18 12:04:59;;;;;;;13.52;10.10;;;;;;;;;;4963355;28;20594;-49
2022/10/18 12:07:52;;;;;;;20.40;11.23;;;;;;;;;;4967034;28;20222;-50
2022/10/18 12:10:19;;;;;;;16.13;10.80;;;;;;;;;;4965537;28;20191;-50
2022/10/18 12:13:12;;;;;;;19.80;12.20;;;;;;;;;;4966184;28;20206;-51
2022/10/18 12:15:39;;;;;;;20.98;11.52;;;;;;;;;;4967491;28;20204;-49
2022/10/18 12:18:13;;;;;;;17.67;10.85;;;;;;;;;;4966613;28;20233;-50
2022/10/18 12:20:42;;;;;;;19.90;11.02;;;;;;;;;;4965708;28;20291;-49
2022/10/18 12:23:16;;;;;;;19.83;10.52;;;;;;;;;;4968168;28;20581;-50
2022/10/18 12:25:55;;;;;;;16.10;10.32;;;;;;;;;;4964693;28;20662;-52
2022/10/18 12:28:28;;;;;;;19.05;10.52;;;;;;;;;;4969226;28;20532;-49
2022/10/18 12:31:07;;;;;;;16.52;10.30;;;;;;;;;;4978203;28;20217;-51
2022/10/18 12:33:40;;;;;;;18.38;10.98;;;;;;;;;;4957271;28;20271;-54
2022/10/18 12:36:20;;;;;;;16.65;10.32;;;;;;;;;;4938971;29;20196;-51
2022/10/18 12:38:55;;;;;;;13.25;9.55;;;;;;;;;;4951462;28;20694;-51
2022/10/18 12:41:31;;;;;;;16.52;8.85;;;;;;;;;;4965771;28;20301;-52
2022/10/18 12:44:05;;;;;;;15.98;8.65;;;;;;;;;;4963139;28;20223;-52
2022/10/18 12:46:53;;;;;;;12.48;8.43;;;;;;;;;;4966832;28;20219;-51
2022/10/18 12:49:27;;;;;;;14.05;9.93;;;;;;;;;;4954661;28;20596;-52
2022/10/18 12:51:59;;;;;;;15.73;8.95;;;;;;;;;;4960442;28;20245;-51
2022/10/18 12:54:31;;;;;;;14.43;9.13;;;;;;;;;;4964820;28;20657;-50
2022/10/18 12:56:59;;;;;;;10.43;8.32;;;;;;;;;;4958705;28;20626;-54
2022/10/18 12:59:26;;;;;;;13.02;8.07;;;;;;;;;;4955457;28;20208;-53
2022/10/18 13:01:53;;;;;;;13.73;7.32;;;;;;;;;;4956555;29;20269;-53
2022/10/18 13:04:26;;;;;;;11.63;8.07;;;;;;;;;;4956998;28;20247;-54
2022/10/18 13:07:01;;;;;;;13.00;7.97;;;;;;;;;;4957261;28;20581;-50
2022/10/18 13:09:39;;;;;;;11.82;8.15;;;;;;;;;;4957396;28;20207;-50
2022/10/18 13:12:09;;;;;;;14.93;8.15;;;;;;;;;;4957156;28;20538;-52
2022/10/18 13:14:45;;;;;;;11.25;7.63;;;;;;;;;;4957199;29;20219;-51
2022/10/18 13:17:39;;;;;;;17.35;9.00;;;;;;;;;;4957079;29;20535;-53
2022/10/18 13:20:06;;;;;;;17.27;9.02;;;;;;;;;;4956436;29;20192;-52
2022/10/18 13:23:04;;;;;;;14.63;9.52;;;;;;;;;;4941477;28;20561;-51
2022/10/18 13:25:40;;;;;;;15.15;8.68;;;;;;;;;;4956466;28;20705;-51
2022/10/18 13:28:31;;;;;;;13.75;8.15;;;;;;;;;;4954891;28;20215;-52
2022/10/18 13:31:19;;;;;;;13.40;8.02;;;;;;;;;;4954802;29;20223;-47
2022/10/18 13:33:46;;;;;;;13.13;8.20;;;;;;;;;;4955123;28;20231;-54
2022/10/18 13:36:16;;;;;;;21.92;8.82;;;;;;;;;;4960309;28;20215;-52
2022/10/18 13:38:49;;;;;;;13.88;8.48;;;;;;;;;;4946876;29;20594;-53
2022/10/18 13:41:22;;;;;;;14.05;8.65;;;;;;;;;;4956210;28;20227;-50
2022/10/18 13:43:52;;;;;;;16.52;9.68;;;;;;;;;;4955862;28;20746;-53
2022/10/18 13:46:31;;;;;;;15.00;8.63;;;;;;;;;;4956435;28;20234;-49
2022/10/18 13:49:13;;;;;;;12.45;8.25;;;;;;;;;;4956138;28;20603;-55
2022/10/18 13:52:06;;;;;;;15.40;7.93;;;;;;;;;;4954862;29;20561;-51
2022/10/18 13:54:54;;;;;;;12.45;7.75;;;;;;;;;;4955741;28;20255;-51
2022/10/18 13:57:42;;;;;;;13.40;7.80;;;;;;;;;;4954674;29;20219;-48
2022/10/18 14:00:47;;;;;;;11.48;7.20;;;;;;;;;;4936039;29;20300;-50
2022/10/18 14:03:24;;;;;;;14.90;8.27;;;;;;;;;;4955661;28;20231;-52
2022/10/18 14:06:15;;;;;;;19.55;8.48;;;;;;;;;;4955929;29;20237;-51
2022/10/18 14:08:42;;;;;;;11.23;8.02;;;;;;;;;;4955955;28;20270;-50
2022/10/18 14:11:28;;;;;;;13.32;8.30;;;;;;;;;;4955870;28;20274;-53
2022/10/18 14:14:05;;;;;;;17.08;8.05;;;;;;;;;;4955511;28;20230;-54
2022/10/18 14:16:36;;;;;;;19.63;8.15;;;;;;;;;;4956042;28;20227;-50
2022/10/18 14:19:10;;;;;;;11.82;8.02;;;;;;;;;;4954856;29;20234;-48
2022/10/18 14:21:39;;;;;;;12.73;8.25;;;;;;;;;;4954839;29;20227;-54
2022/10/18 14:24:18;;;;;;;15.27;9.05;;;;;;;;;;4955120;28;20542;-51
2022/10/18 14:26:45;;;;;;;19.20;10.05;;;;;;;;;;4956482;28;20317;-51
2022/10/18 14:29:18;;;;;;;20.27;10.00;;;;;;;;;;4955995;28;20235;-53
2022/10/18 14:31:53;;;;;;;19.25;9.60;;;;;;;;;;4955211;29;20227;-50
2022/10/18 14:34:20;;;;;;;17.80;10.00;;;;;;;;;;4955397;28;20238;-51
2022/10/18 14:36:48;;;;;;;22.40;10.55;;;;;;;;;;4955423;28;20229;-49
2022/10/18 14:39:19;;;;;;;19.77;10.18;;;;;;;;;;4955964;28;20238;-48
2022/10/18 14:41:55;;;;;;;22.40;10.63;;;;;;;;;;4955283;29;20314;-51
2022/10/18 14:44:33;;;;;;;18.70;9.75;;;;;;;;;;4955477;28;20238;-49
2022/10/18 14:47:03;;;;;;;19.02;9.63;;;;;;;;;;4938764;29;20241;-50
2022/10/18 14:49:30;;;;;;;20.05;9.38;;;;;;;;;;4955519;28;20274;-51
2022/10/18 14:51:58;;;;;;;19.67;9.48;;;;;;;;;;4956304;28;20649;-50
2022/10/18 14:54:31;;;;;;;18.92;9.50;;;;;;;;;;4964568;28;20210;-51
2022/10/18 14:56:59;;;;;;;15.73;8.82;;;;;;;;;;4952495;28;20235;-50
2022/10/18 14:59:30;;;;;;;18.98;9.63;;;;;;;;;;4955911;28;20224;-49
2022/10/18 15:02:11;;;;;;;18.15;9.60;;;;;;;;;;4954182;28;20228;-48
2022/10/18 15:04:38;;;;;;;21.33;10.35;;;;;;;;;;4951300;29;20231;-50
2022/10/18 15:07:06;;;;;;;15.55;9.30;;;;;;;;;;4960825;28;20242;-51
2022/10/18 15:09:34;;;;;;;19.98;12.57;;;;;;;;;;4961598;28;20226;-49
2022/10/18 15:12:04;;;;;;;19.77;11.18;;;;;;;;;;4962155;28;20313;-49
2022/10/18 15:14:33;;;;;;;49.25;19.80;;;;;;;;;;4963068;28;20227;-49
2022/10/18 15:17:28;;;;;;;110.55;36.63;;;;;;;;;;4955859;28;20211;-52
2022/10/18 15:19:57;;;;;;;81.57;29.25;;;;;;;;;;4954353;29;20270;-49
2022/10/18 15:22:31;;;;;;;159.23;58.47;;;;;;;;;;4955364;28;20574;-51
2022/10/18 15:25:08;;;;;;;157.82;56.25;;;;;;;;;;4955159;29;20218;-47